Wetterdaten: Woche 28.08.17 - 03.09.17 (KW35)
Datum Zeit Temp. A. Feuchte A. Luftdruck Regen Wind Richtung Taupunkt Windchill Windben
28.08.2017 00:00 16,8 C 93 % 1016,9 hPa 0,0 l/m 0,0 km/h (0 Bft) S-SW 15,6 C 16,8 C 0,0 km/h (0 Bft)
28.08.2017 01:00 16,0 C 94 % 1016,9 hPa 0,0 l/m 0,0 km/h (0 Bft) S-SW 15,0 C 16,0 C 0,0 km/h (0 Bft)
28.08.2017 02:00 15,7 C 95 % 1016,7 hPa 0,0 l/m 0,0 km/h (0 Bft) S-SW 14,9 C 15,7 C 0,0 km/h (0 Bft)
28.08.2017 03:00 15,3 C 95 % 1016,4 hPa 0,0 l/m 0,0 km/h (0 Bft) S-SW 14,6 C 15,3 C 0,0 km/h (0 Bft)
28.08.2017 04:00 14,9 C 96 % 1016,0 hPa 0,0 l/m 0,0 km/h (0 Bft) S-SW 14,2 C 14,9 C 0,0 km/h (0 Bft)
28.08.2017 05:00 14,3 C 96 % 1015,8 hPa 0,0 l/m 0,0 km/h (0 Bft) S-SW 13,6 C 14,3 C 0,0 km/h (0 Bft)
28.08.2017 06:00 13,7 C 96 % 1015,8 hPa 0,0 l/m 0,0 km/h (0 Bft) S-SW 13,1 C 13,7 C 0,0 km/h (0 Bft)
28.08.2017 07:00 13,7 C 97 % 1016,2 hPa 0,0 l/m 0,0 km/h (0 Bft) S-SW 13,3 C 13,7 C 0,0 km/h (0 Bft)
28.08.2017 08:00 15,8 C 95 % 1016,4 hPa 0,0 l/m 0,0 km/h (0 Bft) S-SW 15,0 C 15,8 C 0,0 km/h (0 Bft)
28.08.2017 09:00 19,4 C 87 % 1016,5 hPa 0,0 l/m 1,1 km/h (1 Bft) S-SW 17,1 C 19,4 C 3,2 km/h (1 Bft)
28.08.2017 10:00 22,4 C 76 % 1016,5 hPa 0,0 l/m 2,3 km/h (1 Bft) NW 17,9 C 22,4 C 6,1 km/h (2 Bft)
28.08.2017 11:00 23,9 C 68 % 1016,6 hPa 0,0 l/m 3,0 km/h (1 Bft) NW 17,7 C 23,9 C 6,8 km/h (2 Bft)
28.08.2017 12:00 24,9 C 65 % 1016,5 hPa 0,0 l/m 2,1 km/h (1 Bft) W-NW 17,9 C 24,9 C 5,5 km/h (2 Bft)
28.08.2017 13:00 26,1 C 62 % 1016,1 hPa 0,0 l/m 3,0 km/h (1 Bft) NW 18,3 C 26,1 C 7,2 km/h (2 Bft)
28.08.2017 14:00 27,1 C 58 % 1015,7 hPa 0,0 l/m 3,0 km/h (1 Bft) NW 18,0 C 27,1 C 8,2 km/h (2 Bft)
28.08.2017 15:00 27,0 C 58 % 1015,3 hPa 0,0 l/m 2,7 km/h (1 Bft) W-NW 17,9 C 27,0 C 7,5 km/h (2 Bft)
28.08.2017 16:00 27,3 C 55 % 1015,0 hPa 0,0 l/m 2,7 km/h (1 Bft) S-SW 17,5 C 27,3 C 7,3 km/h (2 Bft)
28.08.2017 17:00 27,3 C 54 % 1014,8 hPa 0,0 l/m 2,5 km/h (1 Bft) NW 17,2 C 27,3 C 6,6 km/h (2 Bft)
28.08.2017 18:00 26,1 C 56 % 1014,7 hPa 0,0 l/m 1,8 km/h (1 Bft) S-SW 16,7 C 26,1 C 6,7 km/h (2 Bft)
28.08.2017 19:00 24,3 C 60 % 1014,9 hPa 0,0 l/m 0,8 km/h (0 Bft) W-NW 15,9 C 24,3 C 4,1 km/h (1 Bft)
28.08.2017 20:00 21,6 C 72 % 1015,4 hPa 0,0 l/m 0,0 km/h (0 Bft) W 16,4 C 21,6 C 0,5 km/h (0 Bft)
28.08.2017 21:00 18,6 C 82 % 1015,9 hPa 0,0 l/m 0,0 km/h (0 Bft) W 15,5 C 18,6 C 0,0 km/h (0 Bft)
28.08.2017 22:00 17,1 C 86 % 1016,3 hPa 0,0 l/m 0,0 km/h (0 Bft) W 14,7 C 17,1 C 0,3 km/h (0 Bft)
28.08.2017 23:00 15,9 C 89 % 1016,4 hPa 0,0 l/m 0,0 km/h (0 Bft) W 14,0 C 15,9 C 0,2 km/h (0 Bft)
29.08.2017 00:00 15,1 C 91 % 1016,3 hPa 0,0 l/m 0,0 km/h (0 Bft) W 13,6 C 15,1 C 0,1 km/h (0 Bft)
29.08.2017 01:00 14,3 C 93 % 1016,0 hPa 0,0 l/m 0,0 km/h (0 Bft) W 13,1 C 14,3 C 0,0 km/h (0 Bft)
29.08.2017 02:00 13,7 C 94 % 1015,8 hPa 0,0 l/m 0,0 km/h (0 Bft) W 12,7 C 13,7 C 0,0 km/h (0 Bft)
29.08.2017 03:00 13,2 C 94 % 1015,4 hPa 0,0 l/m 0,0 km/h (0 Bft) W 12,3 C 13,2 C 0,0 km/h (0 Bft)
29.08.2017 04:00 12,7 C 95 % 1014,9 hPa 0,0 l/m 0,0 km/h (0 Bft) W 11,9 C 12,7 C 0,0 km/h (0 Bft)
29.08.2017 05:00 12,2 C 95 % 1014,7 hPa 0,0 l/m 0,0 km/h (0 Bft) W 11,4 C 12,2 C 0,0 km/h (0 Bft)
29.08.2017 06:00 11,8 C 96 % 1014,8 hPa 0,0 l/m 0,0 km/h (0 Bft) W 11,1 C 11,8 C 0,3 km/h (0 Bft)
29.08.2017 07:00 11,8 C 96 % 1014,9 hPa 0,0 l/m 0,0 km/h (0 Bft) W 11,2 C 11,8 C 0,1 km/h (0 Bft)
29.08.2017 08:00 14,7 C 92 % 1014,9 hPa 0,0 l/m 0,2 km/h (0 Bft) W 13,4 C 14,7 C 1,3 km/h (1 Bft)
29.08.2017 09:00 19,4 C 81 % 1014,7 hPa 0,0 l/m 1,0 km/h (0 Bft) W 16,1 C 19,4 C 2,9 km/h (1 Bft)
29.08.2017 10:00 23,0 C 71 % 1014,7 hPa 0,0 l/m 1,6 km/h (1 Bft) NW 17,5 C 23,0 C 4,0 km/h (1 Bft)
29.08.2017 11:00 25,6 C 61 % 1014,2 hPa 0,0 l/m 2,5 km/h (1 Bft) S-SW 17,6 C 25,6 C 5,8 km/h (2 Bft)
29.08.2017 12:00 26,4 C 58 % 1014,0 hPa 0,0 l/m 2,1 km/h (1 Bft) W-NW 17,4 C 26,4 C 5,6 km/h (2 Bft)
29.08.2017 13:00 27,8 C 51 % 1013,5 hPa 0,0 l/m 2,2 km/h (1 Bft) W-NW 16,8 C 27,8 C 6,3 km/h (2 Bft)
29.08.2017 14:00 29,3 C 43 % 1012,9 hPa 0,0 l/m 2,2 km/h (1 Bft) O 15,4 C 29,3 C 5,9 km/h (2 Bft)
29.08.2017 15:00 30,1 C 37 % 1012,5 hPa 0,0 l/m 2,3 km/h (1 Bft) O-NO 13,8 C 30,1 C 5,9 km/h (2 Bft)
29.08.2017 16:00 30,5 C 36 % 1012,1 hPa 0,0 l/m 2,1 km/h (1 Bft) S 13,8 C 30,5 C 5,9 km/h (2 Bft)
29.08.2017 17:00 30,3 C 39 % 1011,6 hPa 0,0 l/m 1,7 km/h (1 Bft) NW 14,5 C 30,3 C 5,7 km/h (2 Bft)
29.08.2017 18:00 29,2 C 44 % 1011,3 hPa 0,0 l/m 0,5 km/h (0 Bft) SW 15,7 C 29,2 C 2,3 km/h (1 Bft)
29.08.2017 19:00 26,1 C 59 % 1011,3 hPa 0,0 l/m 0,1 km/h (0 Bft) SW 17,2 C 26,1 C 0,8 km/h (0 Bft)
29.08.2017 20:00 21,9 C 74 % 1011,7 hPa 0,0 l/m 0,0 km/h (0 Bft) SW 17,0 C 21,9 C 0,1 km/h (0 Bft)
29.08.2017 21:00 19,2 C 83 % 1012,0 hPa 0,0 l/m 0,2 km/h (0 Bft) W 16,2 C 19,2 C 1,6 km/h (1 Bft)
29.08.2017 22:00 17,6 C 87 % 1012,0 hPa 0,0 l/m 0,0 km/h (0 Bft) W 15,3 C 17,6 C 0,4 km/h (0 Bft)
29.08.2017 23:00 16,3 C 90 % 1012,1 hPa 0,0 l/m 0,0 km/h (0 Bft) W 14,6 C 16,3 C 0,0 km/h (0 Bft)
30.08.2017 00:00 15,6 C 91 % 1012,1 hPa 0,0 l/m 0,0 km/h (0 Bft) W 14,1 C 15,6 C 0,0 km/h (0 Bft)
30.08.2017 01:00 14,6 C 93 % 1011,9 hPa 0,0 l/m 0,0 km/h (0 Bft) W 13,4 C 14,6 C 0,1 km/h (0 Bft)
30.08.2017 02:00 14,0 C 93 % 1011,7 hPa 0,0 l/m 0,0 km/h (0 Bft) W 12,8 C 14,0 C 0,5 km/h (0 Bft)
30.08.2017 03:00 13,3 C 94 % 1011,2 hPa 0,0 l/m 0,0 km/h (0 Bft) W 12,3 C 13,3 C 0,0 km/h (0 Bft)
30.08.2017 04:00 12,6 C 94 % 1010,9 hPa 0,0 l/m 0,0 km/h (0 Bft) W 11,7 C 12,6 C 0,0 km/h (0 Bft)
30.08.2017 05:00 12,3 C 95 % 1010,8 hPa 0,0 l/m 0,0 km/h (0 Bft) W 11,5 C 12,3 C 0,8 km/h (0 Bft)
30.08.2017 06:00 12,3 C 95 % 1010,8 hPa 0,0 l/m 0,6 km/h (0 Bft) O-NO 11,4 C 12,3 C 2,0 km/h (1 Bft)
30.08.2017 07:00 12,8 C 95 % 1010,8 hPa 0,0 l/m 0,1 km/h (0 Bft) O-NO 12,0 C 12,8 C 1,2 km/h (1 Bft)
30.08.2017 08:00 15,9 C 90 % 1010,6 hPa 0,0 l/m 0,1 km/h (0 Bft) O-NO 14,2 C 15,9 C 1,1 km/h (0 Bft)
30.08.2017 09:00 20,7 C 78 % 1010,6 hPa 0,0 l/m 0,8 km/h (0 Bft) O-NO 16,6 C 20,7 C 3,6 km/h (1 Bft)
30.08.2017 10:00 24,7 C 66 % 1010,3 hPa 0,0 l/m 2,4 km/h (1 Bft) O-NO 17,9 C 24,7 C 5,6 km/h (2 Bft)
30.08.2017 11:00 27,2 C 53 % 1010,3 hPa 0,0 l/m 4,3 km/h (1 Bft) NO 16,9 C 27,2 C 8,9 km/h (2 Bft)
30.08.2017 12:00 27,5 C 53 % 1010,1 hPa 0,0 l/m 5,3 km/h (1 Bft) O-NO 16,9 C 27,4 C 12,2 km/h (2 Bft)
30.08.2017 13:00 28,2 C 47 % 1009,9 hPa 0,0 l/m 7,3 km/h (2 Bft) O-NO 15,9 C 28,1 C 17,7 km/h (3 Bft)
30.08.2017 14:00 29,2 C 45 % 1009,5 hPa 0,0 l/m 6,3 km/h (2 Bft) O-NO 15,9 C 29,2 C 16,2 km/h (3 Bft)
30.08.2017 15:00 29,5 C 44 % 1008,9 hPa 0,0 l/m 5,9 km/h (2 Bft) O-NO 15,9 C 29,5 C 15,4 km/h (3 Bft)
30.08.2017 16:00 29,2 C 45 % 1008,5 hPa 0,0 l/m 4,7 km/h (1 Bft) O-NO 16,0 C 29,2 C 12,8 km/h (3 Bft)
30.08.2017 17:00 27,7 C 48 % 1008,4 hPa 0,0 l/m 3,7 km/h (1 Bft) O-NO 15,6 C 27,7 C 11,3 km/h (2 Bft)
30.08.2017 18:00 26,9 C 51 % 1008,3 hPa 0,0 l/m 2,7 km/h (1 Bft) O-NO 15,9 C 26,9 C 7,1 km/h (2 Bft)
30.08.2017 19:00 25,7 C 56 % 1008,4 hPa 0,0 l/m 1,3 km/h (1 Bft) O 16,1 C 25,7 C 5,6 km/h (2 Bft)
30.08.2017 20:00 23,9 C 63 % 1008,4 hPa 0,0 l/m 0,8 km/h (0 Bft) O 16,4 C 23,9 C 3,7 km/h (1 Bft)
30.08.2017 21:00 22,5 C 70 % 1009,1 hPa 0,0 l/m 0,1 km/h (0 Bft) O 16,7 C 22,5 C 1,2 km/h (1 Bft)
30.08.2017 22:00 20,8 C 80 % 1010,2 hPa 0,5 l/m 3,3 km/h (1 Bft) O-NO 17,1 C 20,8 C 10,6 km/h (2 Bft)
30.08.2017 23:00 18,6 C 91 % 1010,3 hPa 0,3 l/m 1,6 km/h (1 Bft) O 17,1 C 18,6 C 4,4 km/h (1 Bft)
31.08.2017 00:00 18,3 C 92 % 1010,3 hPa 0,0 l/m 0,3 km/h (0 Bft) O 17,0 C 18,3 C 1,5 km/h (1 Bft)
31.08.2017 01:00 17,7 C 94 % 1010,2 hPa 0,0 l/m 0,1 km/h (0 Bft) O 16,7 C 17,7 C 1,2 km/h (1 Bft)
31.08.2017 02:00 17,6 C 90 % 1009,8 hPa 0,0 l/m 1,6 km/h (1 Bft) O-NO 16,0 C 17,6 C 5,1 km/h (1 Bft)
31.08.2017 03:00 17,4 C 88 % 1009,7 hPa 0,0 l/m 0,4 km/h (0 Bft) NO 15,5 C 17,4 C 1,7 km/h (1 Bft)
31.08.2017 04:00 16,7 C 92 % 1009,5 hPa 0,0 l/m 0,1 km/h (0 Bft) NO 15,3 C 16,7 C 1,6 km/h (1 Bft)
31.08.2017 05:00 16,4 C 92 % 1009,4 hPa 0,0 l/m 0,6 km/h (0 Bft) NO 15,2 C 16,4 C 2,8 km/h (1 Bft)
31.08.2017 06:00 16,6 C 92 % 1009,4 hPa 0,3 l/m 0,3 km/h (0 Bft) O-NO 15,3 C 16,6 C 1,9 km/h (1 Bft)
31.08.2017 07:00 16,5 C 95 % 1010,6 hPa 4,6 l/m 3,3 km/h (1 Bft) O-NO 15,7 C 16,5 C 9,8 km/h (2 Bft)
31.08.2017 08:00 16,6 C 95 % 1011,0 hPa 0,0 l/m 2,9 km/h (1 Bft) O-NO 15,8 C 16,6 C 9,2 km/h (2 Bft)
31.08.2017 09:00 16,8 C 94 % 1011,4 hPa 0,3 l/m 2,4 km/h (1 Bft) O-NO 15,8 C 16,8 C 7,8 km/h (2 Bft)
31.08.2017 10:00 16,7 C 92 % 1012,3 hPa 0,0 l/m 4,4 km/h (1 Bft) O-NO 15,4 C 16,7 C 13,3 km/h (3 Bft)
31.08.2017 11:00 16,0 C 92 % 1013,8 hPa 0,3 l/m 2,6 km/h (1 Bft) O-NO 14,6 C 16,0 C 6,6 km/h (2 Bft)
31.08.2017 12:00 15,5 C 90 % 1014,5 hPa 0,0 l/m 2,3 km/h (1 Bft) O-SO 13,9 C 15,5 C 6,7 km/h (2 Bft)
31.08.2017 13:00 14,9 C 88 % 1015,5 hPa 0,0 l/m 3,0 km/h (1 Bft) O 12,9 C 14,9 C 9,1 km/h (2 Bft)
31.08.2017 14:00 14,3 C 90 % 1016,4 hPa 0,0 l/m 2,2 km/h (1 Bft) O-NO 12,6 C 14,3 C 6,4 km/h (2 Bft)
31.08.2017 15:00 14,0 C 91 % 1017,0 hPa 0,3 l/m 0,9 km/h (0 Bft) O 12,7 C 14,0 C 4,1 km/h (1 Bft)
31.08.2017 16:00 13,6 C 92 % 1017,2 hPa 1,3 l/m 1,5 km/h (1 Bft) O-NO 12,3 C 13,6 C 5,3 km/h (1 Bft)
31.08.2017 17:00 12,8 C 93 % 1017,6 hPa 0,5 l/m 0,5 km/h (0 Bft) O-NO 11,7 C 12,8 C 2,9 km/h (1 Bft)
31.08.2017 18:00 12,9 C 94 % 1017,9 hPa 0,0 l/m 0,9 km/h (0 Bft) O 11,9 C 12,9 C 3,5 km/h (1 Bft)
31.08.2017 19:00 12,7 C 95 % 1018,2 hPa 0,0 l/m 1,2 km/h (1 Bft) O 11,9 C 12,7 C 3,7 km/h (1 Bft)
31.08.2017 20:00 12,5 C 95 % 1018,9 hPa 0,3 l/m 0,2 km/h (0 Bft) O 11,7 C 12,5 C 1,3 km/h (1 Bft)
31.08.2017 21:00 12,3 C 95 % 1019,2 hPa 0,0 l/m 0,1 km/h (0 Bft) O 11,4 C 12,3 C 0,9 km/h (0 Bft)
31.08.2017 22:00 12,0 C 95 % 1019,2 hPa 0,3 l/m 0,5 km/h (0 Bft) O-SO 11,3 C 12,0 C 2,8 km/h (1 Bft)
31.08.2017 23:00 11,7 C 96 % 1019,7 hPa 0,0 l/m 0,2 km/h (0 Bft) O-SO 11,1 C 11,7 C 1,3 km/h (1 Bft)
01.09.2017 00:00 11,7 C 96 % 1019,7 hPa 0,3 l/m 0,1 km/h (0 Bft) O-SO 11,0 C 11,7 C 0,8 km/h (0 Bft)
01.09.2017 01:00 11,4 C 96 % 1019,5 hPa 0,0 l/m 0,1 km/h (0 Bft) O-SO 10,8 C 11,4 C 0,8 km/h (0 Bft)
01.09.2017 02:00 11,3 C 96 % 1019,2 hPa 0,0 l/m 0,1 km/h (0 Bft) O-SO 10,7 C 11,3 C 0,4 km/h (0 Bft)
01.09.2017 03:00 11,3 C 97 % 1018,9 hPa 0,0 l/m 0,2 km/h (0 Bft) O-SO 10,8 C 11,3 C 0,8 km/h (0 Bft)
01.09.2017 04:00 11,3 C 97 % 1018,6 hPa 0,0 l/m 0,0 km/h (0 Bft) O-SO 10,8 C 11,3 C 0,1 km/h (0 Bft)
01.09.2017 05:00 11,3 C 97 % 1018,5 hPa 0,3 l/m 0,0 km/h (0 Bft) O-SO 10,8 C 11,3 C 0,0 km/h (0 Bft)
01.09.2017 06:00 11,3 C 97 % 1018,5 hPa 0,5 l/m 0,0 km/h (0 Bft) O-SO 10,8 C 11,3 C 0,0 km/h (0 Bft)
01.09.2017 07:00 11,1 C 97 % 1018,7 hPa 0,3 l/m 0,0 km/h (0 Bft) O-SO 10,7 C 11,1 C 0,0 km/h (0 Bft)
01.09.2017 08:00 11,4 C 97 % 1018,7 hPa 0,0 l/m 0,0 km/h (0 Bft) O-SO 10,9 C 11,4 C 0,0 km/h (0 Bft)
01.09.2017 09:00 12,1 C 95 % 1018,8 hPa 0,0 l/m 0,0 km/h (0 Bft) O-SO 11,4 C 12,1 C 0,0 km/h (0 Bft)
01.09.2017 10:00 12,6 C 93 % 1018,8 hPa 0,0 l/m 0,6 km/h (0 Bft) NO 11,4 C 12,6 C 3,5 km/h (1 Bft)
01.09.2017 11:00 13,8 C 88 % 1018,6 hPa 0,0 l/m 2,2 km/h (1 Bft) NW 11,9 C 13,8 C 6,4 km/h (2 Bft)
01.09.2017 12:00 14,1 C 86 % 1018,4 hPa 0,0 l/m 3,0 km/h (1 Bft) W 11,8 C 14,1 C 8,3 km/h (2 Bft)
01.09.2017 13:00 14,1 C 84 % 1018,4 hPa 0,0 l/m 2,1 km/h (1 Bft) NW 11,5 C 14,1 C 7,2 km/h (2 Bft)
01.09.2017 14:00 14,4 C 83 % 1018,1 hPa 0,0 l/m 2,5 km/h (1 Bft) NW 11,5 C 14,4 C 8,3 km/h (2 Bft)
01.09.2017 15:00 14,9 C 81 % 1017,5 hPa 0,0 l/m 3,0 km/h (1 Bft) NW 11,7 C 14,9 C 9,5 km/h (2 Bft)
01.09.2017 16:00 14,8 C 76 % 1017,3 hPa 0,0 l/m 2,5 km/h (1 Bft) W-SW 10,7 C 14,8 C 8,0 km/h (2 Bft)
01.09.2017 17:00 14,5 C 78 % 1017,5 hPa 0,0 l/m 1,1 km/h (1 Bft) W-SW 10,6 C 14,5 C 4,3 km/h (1 Bft)
01.09.2017 18:00 14,7 C 79 % 1017,2 hPa 0,0 l/m 1,2 km/h (1 Bft) NW 11,1 C 14,7 C 4,9 km/h (1 Bft)
01.09.2017 19:00 13,9 C 83 % 1017,2 hPa 0,0 l/m 0,6 km/h (0 Bft) W-NW 11,0 C 13,9 C 3,9 km/h (1 Bft)
01.09.2017 20:00 12,5 C 87 % 1017,5 hPa 0,0 l/m 0,2 km/h (0 Bft) W-NW 10,3 C 12,5 C 1,2 km/h (1 Bft)
01.09.2017 21:00 11,2 C 91 % 1017,7 hPa 0,0 l/m 0,1 km/h (0 Bft) W-NW 9,9 C 11,2 C 0,7 km/h (0 Bft)
01.09.2017 22:00 10,3 C 94 % 1017,8 hPa 0,0 l/m 0,0 km/h (0 Bft) W-NW 9,3 C 10,3 C 0,0 km/h (0 Bft)
01.09.2017 23:00 9,8 C 95 % 1018,2 hPa 0,0 l/m 0,0 km/h (0 Bft) W-NW 9,0 C 9,8 C 0,1 km/h (0 Bft)
02.09.2017 00:00 9,5 C 95 % 1018,1 hPa 0,0 l/m 0,0 km/h (0 Bft) W-NW 8,8 C 9,5 C 0,0 km/h (0 Bft)
02.09.2017 01:00 9,3 C 96 % 1017,7 hPa 0,0 l/m 0,0 km/h (0 Bft) W-NW 8,7 C 9,3 C 0,0 km/h (0 Bft)
02.09.2017 02:00 8,8 C 96 % 1017,5 hPa 0,0 l/m 0,0 km/h (0 Bft) W-NW 8,1 C 8,8 C 0,0 km/h (0 Bft)
02.09.2017 03:00 8,3 C 96 % 1017,5 hPa 0,0 l/m 0,0 km/h (0 Bft) NW 7,8 C 8,3 C 0,0 km/h (0 Bft)
02.09.2017 04:00 8,4 C 97 % 1017,5 hPa 0,0 l/m 0,0 km/h (0 Bft) NW 7,9 C 8,4 C 0,0 km/h (0 Bft)
02.09.2017 05:00 8,4 C 97 % 1017,2 hPa 0,0 l/m 0,0 km/h (0 Bft) NW 7,9 C 8,4 C 0,0 km/h (0 Bft)
02.09.2017 06:00 8,3 C 97 % 1017,1 hPa 0,0 l/m 0,0 km/h (0 Bft) NW 7,8 C 8,3 C 0,0 km/h (0 Bft)
02.09.2017 07:00 8,8 C 98 % 1017,3 hPa 0,0 l/m 0,0 km/h (0 Bft) W 8,4 C 8,8 C 0,0 km/h (0 Bft)
02.09.2017 08:00 9,5 C 98 % 1017,3 hPa 0,0 l/m 0,0 km/h (0 Bft) W 9,2 C 9,5 C 0,0 km/h (0 Bft)
02.09.2017 09:00 10,9 C 96 % 1017,5 hPa 0,0 l/m 0,0 km/h (0 Bft) W 10,3 C 10,9 C 0,0 km/h (0 Bft)
02.09.2017 10:00 12,4 C 89 % 1017,6 hPa 0,0 l/m 0,5 km/h (0 Bft) SW 10,6 C 12,4 C 2,1 km/h (1 Bft)
02.09.2017 11:00 13,7 C 78 % 1017,6 hPa 0,0 l/m 2,5 km/h (1 Bft) NW 9,9 C 13,7 C 6,3 km/h (2 Bft)
02.09.2017 12:00 14,0 C 73 % 1017,7 hPa 0,0 l/m 2,4 km/h (1 Bft) N-NW 9,2 C 14,0 C 6,3 km/h (2 Bft)
02.09.2017 13:00 15,1 C 68 % 1017,6 hPa 0,0 l/m 2,9 km/h (1 Bft) W 9,3 C 15,1 C 8,4 km/h (2 Bft)
02.09.2017 14:00 13,9 C 71 % 1017,7 hPa 0,0 l/m 2,6 km/h (1 Bft) N-NO 8,7 C 13,9 C 7,2 km/h (2 Bft)
02.09.2017 15:00 12,2 C 83 % 1017,6 hPa 0,0 l/m 1,6 km/h (1 Bft) NO 9,4 C 12,2 C 4,8 km/h (1 Bft)
02.09.2017 16:00 13,7 C 76 % 1017,2 hPa 0,0 l/m 2,1 km/h (1 Bft) O-NO 9,6 C 13,7 C 5,6 km/h (2 Bft)
02.09.2017 17:00 13,9 C 78 % 1017,0 hPa 0,0 l/m 2,2 km/h (1 Bft) O 10,1 C 13,9 C 5,3 km/h (1 Bft)
02.09.2017 18:00 12,2 C 86 % 1017,5 hPa 10,4 l/m 2,0 km/h (1 Bft) S-SW 9,8 C 12,2 C 5,6 km/h (2 Bft)
02.09.2017 19:00 9,4 C 92 % 1017,8 hPa 2,5 l/m 1,7 km/h (1 Bft) S-SW 8,2 C 9,4 C 5,6 km/h (2 Bft)
02.09.2017 20:00 9,3 C 95 % 1018,1 hPa 0,0 l/m 0,8 km/h (0 Bft) O 8,6 C 9,3 C 2,9 km/h (1 Bft)
02.09.2017 21:00 9,0 C 95 % 1018,1 hPa 0,0 l/m 0,0 km/h (0 Bft) O 8,3 C 9,0 C 0,4 km/h (0 Bft)
02.09.2017 22:00 7,9 C 96 % 1018,6 hPa 0,0 l/m 0,0 km/h (0 Bft) O 7,3 C 7,9 C 0,3 km/h (0 Bft)
02.09.2017 23:00 7,0 C 96 % 1018,7 hPa 0,3 l/m 0,0 km/h (0 Bft) O 6,5 C 7,0 C 0,1 km/h (0 Bft)
03.09.2017 00:00 6,7 C 97 % 1018,8 hPa 0,0 l/m 0,0 km/h (0 Bft) O 6,2 C 6,7 C 0,1 km/h (0 Bft)
03.09.2017 01:00 7,1 C 97 % 1018,7 hPa 0,0 l/m 0,0 km/h (0 Bft) O 6,7 C 7,1 C 0,3 km/h (0 Bft)
03.09.2017 02:00 7,9 C 98 % 1018,5 hPa 0,0 l/m 0,1 km/h (0 Bft) O 7,6 C 7,9 C 0,5 km/h (0 Bft)
03.09.2017 03:00 8,2 C 98 % 1018,3 hPa 0,0 l/m 0,3 km/h (0 Bft) O 7,8 C 8,2 C 1,7 km/h (1 Bft)
03.09.2017 04:00 8,0 C 97 % 1018,1 hPa 0,0 l/m 1,6 km/h (1 Bft) O-NO 7,6 C 8,0 C 4,8 km/h (1 Bft)
03.09.2017 05:00 7,9 C 98 % 1018,1 hPa 0,0 l/m 1,1 km/h (1 Bft) O-NO 7,6 C 7,9 C 4,0 km/h (1 Bft)
03.09.2017 06:00 7,9 C 98 % 1017,9 hPa 0,0 l/m 0,8 km/h (0 Bft) S-SO 7,6 C 7,9 C 3,7 km/h (1 Bft)
03.09.2017 07:00 7,9 C 98 % 1017,9 hPa 0,0 l/m 0,4 km/h (0 Bft) O 7,6 C 7,9 C 2,8 km/h (1 Bft)
03.09.2017 08:00 8,1 C 98 % 1018,0 hPa 0,0 l/m 0,7 km/h (0 Bft) O 7,8 C 8,1 C 2,9 km/h (1 Bft)
03.09.2017 09:00 8,9 C 97 % 1018,0 hPa 0,0 l/m 0,6 km/h (0 Bft) O 8,5 C 8,9 C 2,6 km/h (1 Bft)
03.09.2017 10:00 10,5 C 93 % 1017,9 hPa 0,0 l/m 0,8 km/h (0 Bft) O-NO 9,4 C 10,5 C 3,5 km/h (1 Bft)
03.09.2017 11:00 13,4 C 82 % 1017,6 hPa 0,0 l/m 1,9 km/h (1 Bft) O-NO 10,3 C 13,4 C 4,7 km/h (1 Bft)
03.09.2017 12:00 14,9 C 74 % 1017,3 hPa 0,0 l/m 2,5 km/h (1 Bft) NO 10,2 C 14,9 C 5,2 km/h (1 Bft)
03.09.2017 13:00 16,5 C 64 % 1016,6 hPa 0,0 l/m 2,8 km/h (1 Bft) NO 9,7 C 16,5 C 7,1 km/h (2 Bft)
03.09.2017 14:00 16,5 C 60 % 1016,1 hPa 0,0 l/m 1,9 km/h (1 Bft) N-NO 8,8 C 16,5 C 4,8 km/h (1 Bft)
03.09.2017 15:00 16,2 C 66 % 1015,7 hPa 0,0 l/m 1,5 km/h (1 Bft) N-NO 9,9 C 16,2 C 5,1 km/h (1 Bft)
03.09.2017 16:00 16,0 C 65 % 1015,3 hPa 0,0 l/m 1,4 km/h (1 Bft) S 9,4 C 16,0 C 4,8 km/h (1 Bft)
03.09.2017 17:00 14,5 C 71 % 1015,3 hPa 0,0 l/m 1,3 km/h (1 Bft) N-NO 9,2 C 14,5 C 4,7 km/h (1 Bft)
03.09.2017 18:00 13,6 C 78 % 1015,2 hPa 0,5 l/m 0,3 km/h (0 Bft) SW 9,9 C 13,6 C 1,9 km/h (1 Bft)
03.09.2017 19:00 12,3 C 90 % 1014,9 hPa 0,0 l/m 0,2 km/h (0 Bft) SW 10,7 C 12,3 C 0,9 km/h (0 Bft)
03.09.2017 20:00 10,4 C 93 % 1015,1 hPa 0,0 l/m 0,0 km/h (0 Bft) S-SO 9,3 C 10,4 C 0,4 km/h (0 Bft)
03.09.2017 21:00 8,9 C 94 % 1015,5 hPa 0,0 l/m 0,0 km/h (0 Bft) S-SO 8,0 C 8,9 C 0,0 km/h (0 Bft)
03.09.2017 22:00 8,0 C 95 % 1015,5 hPa 0,0 l/m 0,0 km/h (0 Bft) S-SO 7,3 C 8,0 C 0,0 km/h (0 Bft)
03.09.2017 23:00 7,6 C 96 % 1015,6 hPa 0,0 l/m 0,0 km/h (0 Bft) S-SO 7,0 C 7,6 C 0,0 km/h (0 Bft)
Min-Datum _ 03.09.17 29.08.17 30.08.17 - 03.09.17 - 03.09.17 03.09.17 03.09.17
_ Min-Zeit 00:20 15:45 20:05 - 23:00 - 00:20 00:20 23:00
Minimum _ 6,6 C 34 % 1008,0 hPa - 0,0 km/h (0 Bft) - 6,0 C 6,6 C 0,0 km/h (0 Bft)
Max-Datum _ 29.08.17 03.09.17 01.09.17 02.09.17 30.08.17 - 30.08.17 29.08.17 30.08.17
_ Max-Zeit 17:10 09:00 00:04 18:30 12:45 - 10:45 17:10 15:00
Maximum _ 30,7 C 98 % 1019,9 hPa 10,4 l/m 9,8 km/h
O-NO (2 Bft)
- 19,6 C 30,7 C 22,5 km/h
O-NO (4 Bft)
Durchschnitt _ 15,8 C 83 % 1015,2 hPa #23,6 l/m 1,1 km/h (1 Bft) W 12,5 C 15,8 C 3,4 km/h (1 Bft)